createdAt,value
2019-04-25T00:00:43.189Z,99602.58
2019-04-25T00:03:12.294Z,99606.14
2019-04-25T00:05:41.150Z,99607.20
2019-04-25T00:08:11.145Z,99608.58
2019-04-25T00:10:39.511Z,99619.73
2019-04-25T00:13:07.865Z,99623.25
2019-04-25T00:15:35.627Z,99624.03
2019-04-25T00:18:03.415Z,99631.70
2019-04-25T00:20:33.183Z,99628.69
2019-04-25T00:23:11.754Z,99632.22
2019-04-25T00:26:11.389Z,99635.44
2019-04-25T00:28:39.403Z,99636.23
2019-04-25T00:31:08.738Z,99641.67
2019-04-25T00:33:36.493Z,99646.53
2019-04-25T00:36:04.202Z,99653.55
2019-04-25T00:38:31.952Z,99657.08
2019-04-25T00:40:59.686Z,99657.08
2019-04-25T00:43:27.428Z,99663.52
2019-04-25T00:45:55.182Z,99671.91
2019-04-25T00:48:22.952Z,99679.50
2019-04-25T00:50:53.466Z,99676.17
2019-04-25T00:53:21.225Z,99671.87
2019-04-25T00:55:49.016Z,99683.26
2019-04-25T00:58:35.191Z,99684.30
2019-04-25T01:01:23.211Z,99681.08
2019-04-25T01:03:53.233Z,99678.02
2019-04-25T01:06:22.050Z,99673.02
2019-04-25T01:08:51.596Z,99666.53
2019-04-25T01:11:19.453Z,99668.06
2019-04-25T01:13:48.243Z,99654.17
2019-04-25T01:16:16.095Z,99654.08
2019-04-25T01:18:45.308Z,99652.70
2019-04-25T01:21:14.111Z,99652.91
2019-04-25T01:23:43.353Z,99663.16
2019-04-25T01:26:11.249Z,99683.25
2019-04-25T01:28:38.984Z,99680.59
2019-04-25T01:31:09.045Z,99688.64
2019-04-25T01:33:36.803Z,99680.95
2019-04-25T01:36:13.420Z,99692.56
2019-04-25T01:38:58.894Z,99698.52
2019-04-25T01:41:49.403Z,99699.56
2019-04-25T01:44:29.929Z,99705.98
2019-04-25T01:46:58.181Z,99700.39
2019-04-25T01:49:25.977Z,99708.61
2019-04-25T01:51:54.433Z,99701.88
2019-04-25T01:54:23.840Z,99705.30
2019-04-25T01:56:51.843Z,99705.86
2019-04-25T01:59:19.560Z,99705.59
2019-04-25T02:01:47.394Z,99702.84
2019-04-25T02:04:15.110Z,99698.28
2019-04-25T02:06:43.419Z,99704.29
2019-04-25T02:09:13.734Z,99712.98
2019-04-25T02:11:48.443Z,99723.73
2019-04-25T02:14:16.184Z,99732.66
2019-04-25T02:16:44.048Z,99729.58
2019-04-25T02:19:11.840Z,99728.69
2019-04-25T02:21:39.589Z,99734.31
2019-04-25T02:24:07.352Z,99741.30
2019-04-25T02:26:35.127Z,99742.31
2019-04-25T02:29:04.695Z,99737.15
2019-04-25T02:31:34.833Z,99747.61
2019-04-25T02:34:06.183Z,99754.95
2019-04-25T02:36:34.454Z,99761.62
2019-04-25T02:39:04.585Z,99766.83
2019-04-25T02:41:31.272Z,99776.91
2019-04-25T02:44:02.990Z,99778.95
2019-04-25T02:47:01.910Z,99782.31
2019-04-25T02:49:47.668Z,99784.36
2019-04-25T02:52:24.783Z,99787.45
2019-04-25T02:54:55.694Z,99786.36
2019-04-25T02:57:22.145Z,99792.94
2019-04-25T02:59:49.867Z,99780.38
2019-04-25T03:02:17.723Z,99780.06
2019-04-25T03:04:45.464Z,99774.30
2019-04-25T03:07:16.646Z,99775.45
2019-04-25T03:09:45.017Z,99767.93
2019-04-25T03:12:26.958Z,99760.96
2019-04-25T03:14:44.415Z,99761.11
2019-04-25T03:17:14.019Z,99777.84
2019-04-25T03:20:09.526Z,99778.89
2019-04-25T03:22:36.280Z,99777.53
2019-04-25T03:25:10.016Z,99787.39
2019-04-25T03:27:34.521Z,99789.77
2019-04-25T03:30:04.443Z,99781.07
2019-04-25T03:32:35.286Z,99777.72
2019-04-25T03:35:04.425Z,99775.53
2019-04-25T03:37:33.058Z,99778.64
2019-04-25T03:40:02.714Z,99789.44
2019-04-25T03:42:31.033Z,99796.41
2019-04-25T03:44:58.844Z,99799.09
2019-04-25T03:47:26.615Z,99803.77
2019-04-25T03:49:55.423Z,99809.24
2019-04-25T03:52:23.911Z,99812.13
2019-04-25T03:54:53.362Z,99811.47
2019-04-25T03:57:21.261Z,99814.23
2019-04-25T03:59:48.991Z,99815.53
2019-04-25T04:02:16.735Z,99823.53
2019-04-25T04:04:44.484Z,99821.47
2019-04-25T04:07:12.763Z,99821.16
2019-04-25T04:09:43.473Z,99827.13
2019-04-25T04:12:12.260Z,99833.37
2019-04-25T04:14:40.212Z,99841.49
2019-04-25T04:17:14.704Z,99842.48
2019-04-25T04:19:49.807Z,99851.08
2019-04-25T04:22:27.034Z,99846.33
2019-04-25T04:24:56.487Z,99848.84
2019-04-25T04:27:24.232Z,99849.17
2019-04-25T04:29:51.978Z,99854.00
2019-04-25T04:32:19.846Z,99859.11
2019-04-25T04:34:47.578Z,99867.53
2019-04-25T04:37:16.129Z,99868.47
2019-04-25T04:39:44.106Z,99872.03
2019-04-25T04:42:13.718Z,99884.98
2019-04-25T04:44:41.762Z,99891.06
2019-04-25T04:47:10.025Z,99886.13
2019-04-25T04:49:37.846Z,99893.94
2019-04-25T04:52:06.525Z,99892.05
2019-04-25T04:54:34.602Z,99896.70
2019-04-25T04:57:16.133Z,99895.78
2019-04-25T04:59:33.699Z,99888.25
2019-04-25T05:02:11.482Z,99898.13
2019-04-25T05:04:58.752Z,99899.84
2019-04-25T05:07:47.322Z,99902.68
2019-04-25T05:10:18.360Z,99901.35
2019-04-25T05:12:44.731Z,99906.36
2019-04-25T05:15:16.258Z,99904.36
2019-04-25T05:17:44.007Z,99910.71
2019-04-25T05:20:12.851Z,99907.50
2019-04-25T05:22:41.218Z,99905.02
2019-04-25T05:25:09.675Z,99898.63
2019-04-25T05:27:50.749Z,99900.70
2019-04-25T05:30:09.203Z,99899.12
2019-04-25T05:32:37.031Z,99903.33
2019-04-25T05:35:05.283Z,99909.52
2019-04-25T05:37:33.540Z,99909.27
2019-04-25T05:40:01.479Z,99913.46
2019-04-25T05:42:54.882Z,99912.87
2019-04-25T05:45:25.750Z,99910.36
2019-04-25T05:47:54.103Z,99911.02
2019-04-25T05:50:23.883Z,99911.42
2019-04-25T05:52:51.662Z,99921.99
2019-04-25T05:55:20.214Z,99925.80
2019-04-25T05:57:50.243Z,99929.64
2019-04-25T06:00:19.035Z,99929.98
2019-04-25T06:02:46.939Z,99934.91
2019-04-25T06:05:14.824Z,99940.87
2019-04-25T06:07:43.251Z,99942.07
2019-04-25T06:10:26.740Z,99938.30
2019-04-25T06:13:29.173Z,99935.94
2019-04-25T06:16:03.521Z,99938.50
2019-04-25T06:18:54.887Z,99943.80
2019-04-25T06:21:23.606Z,99943.23
2019-04-25T06:24:18.288Z,99949.08
2019-04-25T06:27:15.362Z,99956.79
2019-04-25T06:29:57.339Z,99957.38
2019-04-25T06:32:14.595Z,99963.13
2019-04-25T06:34:44.207Z,99967.05
2019-04-25T06:37:13.760Z,99972.46
2019-04-25T06:39:41.843Z,99977.77
2019-04-25T06:42:09.586Z,99978.69
2019-04-25T06:44:44.081Z,99979.11
2019-04-25T06:47:23.094Z,99977.48
2019-04-25T06:49:53.238Z,99975.97
2019-04-25T06:52:21.619Z,99980.73
2019-04-25T06:54:49.428Z,99984.61
2019-04-25T06:57:17.150Z,99989.80
2019-04-25T06:59:44.950Z,99992.81
2019-04-25T07:02:14.017Z,99992.70
2019-04-25T07:04:43.495Z,99992.38
2019-04-25T07:07:13.109Z,99991.03
2019-04-25T07:09:41.394Z,99992.91
2019-04-25T07:12:09.242Z,99986.48
2019-04-25T07:14:37.039Z,99991.59
2019-04-25T07:17:04.987Z,99986.31
2019-04-25T07:19:34.301Z,99983.75
2019-04-25T07:22:03.906Z,99981.73
2019-04-25T07:24:31.783Z,99978.41
2019-04-25T07:27:18.964Z,99983.34
2019-04-25T07:29:58.567Z,99981.24
2019-04-25T07:32:34.833Z,99981.44
2019-04-25T07:35:05.315Z,99985.97
2019-04-25T07:37:34.905Z,99996.31
2019-04-25T07:40:04.643Z,99992.63
2019-04-25T07:42:53.570Z,99991.72
2019-04-25T07:45:27.008Z,99995.59
2019-04-25T07:48:07.576Z,100000.42
2019-04-25T07:50:47.227Z,100008.55
2019-04-25T07:53:15.256Z,100008.97
2019-04-25T07:55:43.380Z,99994.63
2019-04-25T07:58:11.353Z,100007.67
2019-04-25T08:00:39.263Z,100009.30
2019-04-25T08:03:23.755Z,100006.50
2019-04-25T08:06:03.081Z,100004.00
2019-04-25T08:08:32.195Z,100004.66
2019-04-25T08:11:07.576Z,100005.70
2019-04-25T08:13:49.602Z,99996.73
2019-04-25T08:16:23.317Z,99996.33
2019-04-25T08:18:51.648Z,100000.02
2019-04-25T08:21:23.872Z,100001.47
2019-04-25T08:23:57.858Z,100001.97
2019-04-25T08:26:26.195Z,99996.59
2019-04-25T08:28:57.454Z,99996.05
2019-04-25T08:31:23.972Z,99992.66
2019-04-25T08:33:53.468Z,99992.46
2019-04-25T08:36:23.272Z,99987.98
2019-04-25T08:38:51.212Z,99980.02
2019-04-25T08:41:21.505Z,99979.05
2019-04-25T08:43:48.776Z,99979.11
2019-04-25T08:46:16.759Z,99975.71
2019-04-25T08:49:19.280Z,99975.87
2019-04-25T08:51:47.257Z,99973.73
2019-04-25T08:54:39.679Z,99976.73
2019-04-25T08:57:08.536Z,99983.62
2019-04-25T08:59:52.877Z,99990.70
2019-04-25T09:02:49.544Z,99982.17
2019-04-25T09:05:45.956Z,99983.50
2019-04-25T09:08:14.188Z,99978.88
2019-04-25T09:10:43.709Z,99976.20
2019-04-25T09:13:13.440Z,99973.74
2019-04-25T09:15:41.374Z,99971.66
2019-04-25T09:18:09.143Z,99972.55
2019-04-25T09:20:39.599Z,99964.63
2019-04-25T09:23:06.729Z,99958.98
2019-04-25T09:25:35.875Z,99960.09
2019-04-25T09:28:04.538Z,99960.48
2019-04-25T09:30:33.978Z,99961.53
2019-04-25T09:33:03.055Z,99956.14
2019-04-25T09:35:33.489Z,99964.83
2019-04-25T09:38:02.967Z,99964.81
2019-04-25T09:40:31.175Z,99953.47
2019-04-25T09:42:59.045Z,99953.39
2019-04-25T09:45:49.770Z,99947.00
2019-04-25T09:48:40.286Z,99951.29
2019-04-25T09:51:39.776Z,99941.13
2019-04-25T09:54:33.499Z,99944.84
2019-04-25T09:57:33.597Z,99944.34
2019-04-25T10:00:03.523Z,99950.48
2019-04-25T10:02:31.268Z,99950.77
2019-04-25T10:04:59.214Z,99954.53
2019-04-25T10:07:27.022Z,99945.22
2019-04-25T10:09:54.843Z,99948.97
2019-04-25T10:12:23.143Z,99944.44
2019-04-25T10:15:46.069Z,99937.64
2019-04-25T10:18:14.368Z,99941.11
2019-04-25T10:20:43.482Z,99932.52
2019-04-25T10:23:13.623Z,99926.52
2019-04-25T10:25:43.848Z,99919.84
2019-04-25T10:28:13.207Z,99921.94
2019-04-25T10:30:41.153Z,99921.56
2019-04-25T10:33:08.998Z,99913.68
2019-04-25T10:35:47.952Z,99910.69
2019-04-25T10:38:14.724Z,99917.37
2019-04-25T10:40:46.125Z,99907.61
2019-04-25T10:43:14.885Z,99904.34
2019-04-25T10:45:46.382Z,99893.87
2019-04-25T10:48:15.032Z,99907.48
2019-04-25T10:50:43.895Z,99900.55
2019-04-25T10:53:12.562Z,99900.30
2019-04-25T10:55:41.372Z,99894.75
2019-04-25T10:58:09.317Z,99893.66
2019-04-25T11:00:40.750Z,99886.28
2019-04-25T11:03:26.847Z,99886.03
2019-04-25T11:05:55.901Z,99884.55
2019-04-25T11:08:24.519Z,99879.87
2019-04-25T11:10:53.819Z,99877.06
2019-04-25T11:13:22.875Z,99875.53
2019-04-25T11:15:50.675Z,99879.23
2019-04-25T11:18:18.553Z,99877.22
2019-04-25T11:20:46.505Z,99878.02
2019-04-25T11:23:14.603Z,99869.02
2019-04-25T11:25:43.538Z,99869.98
2019-04-25T11:28:14.350Z,99870.25
2019-04-25T11:30:46.672Z,99860.41
2019-04-25T11:33:15.340Z,99865.77
2019-04-25T11:35:43.942Z,99865.89
2019-04-25T11:38:16.031Z,99851.09
2019-04-25T11:40:55.151Z,99850.63
2019-04-25T11:43:22.980Z,99846.66
2019-04-25T11:45:50.952Z,99838.09
2019-04-25T11:48:20.486Z,99841.87
2019-04-25T11:50:52.279Z,99841.98
2019-04-25T11:53:20.340Z,99846.09
2019-04-25T11:55:49.952Z,99841.10
2019-04-25T11:58:18.410Z,99829.70
2019-04-25T12:00:47.111Z,99835.52
2019-04-25T12:03:15.375Z,99827.03
2019-04-25T12:05:45.851Z,99826.58
2019-04-25T12:08:13.526Z,99822.45
2019-04-25T12:10:41.476Z,99816.61
2019-04-25T12:13:09.369Z,99815.05
2019-04-25T12:15:38.744Z,99822.36
2019-04-25T12:18:06.568Z,99815.47
2019-04-25T12:20:34.483Z,99806.19
2019-04-25T12:23:08.422Z,99810.31
2019-04-25T12:25:32.018Z,99802.38
2019-04-25T12:28:02.433Z,99795.77
2019-04-25T12:30:38.158Z,99786.86
2019-04-25T12:33:00.968Z,99788.13
2019-04-25T12:35:28.765Z,99795.80
2019-04-25T12:37:56.637Z,99787.13
2019-04-25T12:40:24.398Z,99786.84
2019-04-25T12:42:52.285Z,99780.57
2019-04-25T12:45:30.179Z,99778.68
2019-04-25T12:47:59.377Z,99773.84
2019-04-25T12:50:27.251Z,99768.16
2019-04-25T12:52:58.132Z,99769.89
2019-04-25T12:55:26.063Z,99766.77
2019-04-25T12:57:55.510Z,99762.88
2019-04-25T13:00:25.551Z,99761.05
2019-04-25T13:02:56.633Z,99753.08
2019-04-25T13:05:24.595Z,99744.88
2019-04-25T13:07:55.959Z,99743.38
2019-04-25T13:10:23.657Z,99745.92
2019-04-25T13:12:51.597Z,99735.97
2019-04-25T13:15:19.684Z,99740.40
2019-04-25T13:17:47.497Z,99739.63
2019-04-25T13:20:15.673Z,99735.00
2019-04-25T13:22:43.477Z,99728.27
2019-04-25T13:25:14.360Z,99730.20
2019-04-25T13:28:00.050Z,99726.91
2019-04-25T13:30:59.931Z,99727.22
2019-04-25T13:33:43.322Z,99718.78
2019-04-25T13:36:13.074Z,99717.97
2019-04-25T13:38:40.888Z,99713.20
2019-04-25T13:41:08.894Z,99712.30
2019-04-25T13:43:36.890Z,99713.70
2019-04-25T13:46:04.736Z,99705.45
2019-04-25T13:48:34.373Z,99708.32
2019-04-25T13:51:04.018Z,99707.83
2019-04-25T13:53:33.453Z,99695.03
2019-04-25T13:56:01.360Z,99698.97
2019-04-25T13:58:30.792Z,99691.78
2019-04-25T14:01:12.076Z,99695.70
2019-04-25T14:03:30.384Z,99683.34
2019-04-25T14:05:58.302Z,99680.19
2019-04-25T14:08:26.981Z,99675.44
2019-04-25T14:10:54.858Z,99672.86
2019-04-25T14:13:25.106Z,99673.23
2019-04-25T14:16:03.584Z,99677.61
2019-04-25T14:18:57.021Z,99667.16
2019-04-25T14:21:26.053Z,99667.61
2019-04-25T14:23:54.242Z,99672.08
2019-04-25T14:26:22.987Z,99661.79
2019-04-25T14:28:50.880Z,99666.46
2019-04-25T14:31:35.433Z,99663.39
2019-04-25T14:33:51.696Z,99651.48
2019-04-25T14:36:19.527Z,99655.39
2019-04-25T14:38:47.351Z,99649.77
2019-04-25T14:41:15.255Z,99638.19
2019-04-25T14:43:43.141Z,99640.23
2019-04-25T14:46:11.153Z,99639.79
2019-04-25T14:48:38.939Z,99643.83
2019-04-25T14:51:06.841Z,99640.15
2019-04-25T14:53:35.179Z,99633.69
2019-04-25T14:56:23.677Z,99650.20
2019-04-25T14:58:51.675Z,99642.55
2019-04-25T15:01:22.697Z,99640.52
2019-04-25T15:03:51.141Z,99633.66
2019-04-25T15:06:19.072Z,99631.02
2019-04-25T15:08:46.927Z,99629.74
2019-04-25T15:11:14.757Z,99626.73
2019-04-25T15:13:42.666Z,99627.97
2019-04-25T15:16:10.443Z,99620.70
2019-04-25T15:18:46.513Z,99626.14
2019-04-25T15:21:08.197Z,99618.75
2019-04-25T15:23:36.068Z,99623.17
2019-04-25T15:26:04.081Z,99619.81
2019-04-25T15:28:39.320Z,99625.42
2019-04-25T15:31:07.304Z,99617.78
2019-04-25T15:33:35.337Z,99620.48
2019-04-25T15:36:37.799Z,99620.61
2019-04-25T15:39:43.922Z,99621.79
2019-04-25T15:42:34.125Z,99616.11
2019-04-25T15:45:19.864Z,99615.42
2019-04-25T15:47:47.810Z,99609.98
2019-04-25T15:50:15.864Z,99612.13
2019-04-25T15:52:44.965Z,99605.90
2019-04-25T15:55:13.071Z,99606.55
2019-04-25T15:57:40.890Z,99612.44
2019-04-25T16:00:15.205Z,99600.68
2019-04-25T16:02:43.738Z,99610.27
2019-04-25T16:05:11.694Z,99605.05
2019-04-25T16:07:40.548Z,99598.60
2019-04-25T16:10:10.009Z,99597.67
2019-04-25T16:12:37.885Z,99599.16
2019-04-25T16:15:06.179Z,99598.57
2019-04-25T16:17:34.844Z,99599.42
2019-04-25T16:20:03.579Z,99594.42
2019-04-25T16:22:32.194Z,99600.34
2019-04-25T16:25:00.134Z,99601.84
2019-04-25T16:27:28.872Z,99595.08
2019-04-25T16:29:56.851Z,99598.03
2019-04-25T16:32:26.691Z,99593.34
2019-04-25T16:34:55.393Z,99593.75
2019-04-25T16:37:23.519Z,99599.48
2019-04-25T16:39:51.595Z,99591.88
2019-04-25T16:45:31.222Z,99596.77
2019-04-25T16:47:58.287Z,99598.98
2019-04-25T16:50:34.783Z,99599.02
2019-04-25T16:53:04.523Z,99595.56
2019-04-25T16:55:35.510Z,99591.88
2019-04-25T16:58:05.522Z,99599.06
2019-04-25T17:00:57.099Z,99590.01
2019-04-25T17:03:26.028Z,99589.22
2019-04-25T17:05:54.043Z,99585.68
2019-04-25T17:08:22.092Z,99584.00
2019-04-25T17:10:50.107Z,99585.45
2019-04-25T17:13:18.327Z,99576.80
2019-04-25T17:16:01.985Z,99582.34
2019-04-25T17:18:34.956Z,99587.78
2019-04-25T17:21:07.716Z,99585.20
2019-04-25T17:23:35.682Z,99587.72
2019-04-25T17:26:04.219Z,99578.75
2019-04-25T17:28:34.964Z,99581.33
2019-04-25T17:31:24.846Z,99578.43
2019-04-25T17:34:18.315Z,99573.35
2019-04-25T17:36:52.786Z,99581.04
2019-04-25T17:39:33.935Z,99577.64
2019-04-25T17:53:22.731Z,99573.91
2019-04-25T18:12:13.408Z,99566.32
2019-04-25T18:23:44.505Z,99557.34
2019-04-25T18:30:49.713Z,99555.20
2019-04-25T18:33:30.263Z,99557.30
2019-04-25T18:36:31.671Z,99563.12
2019-04-25T18:39:53.567Z,99557.45
2019-04-25T18:43:01.251Z,99565.02
2019-04-25T18:46:01.764Z,99561.91
2019-04-25T18:48:29.583Z,99564.88
2019-04-25T18:51:04.799Z,99567.31
2019-04-25T18:53:59.654Z,99568.69
2019-04-25T18:56:45.669Z,99560.13
2019-04-25T18:59:46.416Z,99565.09
2019-04-25T19:02:42.559Z,99563.54
2019-04-25T19:06:16.479Z,99570.86
2019-04-25T19:08:54.478Z,99566.55
2019-04-25T19:11:47.156Z,99570.66
2019-04-25T19:15:14.806Z,99571.61
2019-04-25T19:17:41.271Z,99566.20
2019-04-25T19:20:31.778Z,99562.89
2019-04-25T19:22:48.332Z,99562.07
2019-04-25T19:25:16.187Z,99552.27
2019-04-25T19:27:44.150Z,99556.78
2019-04-25T19:30:14.565Z,99551.22
2019-04-25T19:32:42.991Z,99550.55
2019-04-25T19:35:10.854Z,99559.69
2019-04-25T19:37:39.485Z,99556.20
2019-04-25T19:40:36.893Z,99556.44
2019-04-25T19:43:27.012Z,99553.08
2019-04-25T19:45:54.790Z,99557.31
2019-04-25T19:48:22.568Z,99555.39
2019-04-25T19:50:50.642Z,99554.64
2019-04-25T19:53:18.493Z,99555.19
2019-04-25T19:55:46.269Z,99556.72
2019-04-25T19:58:14.083Z,99558.09
2019-04-25T20:00:43.257Z,99558.52
2019-04-25T20:03:19.868Z,99555.93
2019-04-25T20:05:56.048Z,99562.40
2019-04-25T20:08:33.465Z,99558.32
2019-04-25T20:11:06.306Z,99559.87
2019-04-25T20:13:34.107Z,99555.02
2019-04-25T20:16:01.880Z,99550.47
2019-04-25T20:18:29.713Z,99555.09
2019-04-25T20:20:57.470Z,99547.73
2019-04-25T20:23:25.263Z,99544.52
2019-04-25T20:25:55.831Z,99543.45
2019-04-25T20:28:22.767Z,99541.53
2019-04-25T20:30:50.532Z,99544.83
2019-04-25T20:33:18.286Z,99538.27
2019-04-25T20:35:47.443Z,99537.55
2019-04-25T20:38:15.373Z,99539.98
2019-04-25T20:40:43.191Z,99534.67
2019-04-25T20:43:10.949Z,99533.65
2019-04-25T20:45:40.178Z,99527.14
2019-04-25T20:48:07.980Z,99527.41
2019-04-25T20:50:35.755Z,99525.67
2019-04-25T20:53:03.591Z,99527.92
2019-04-25T20:55:31.387Z,99526.35
2019-04-25T20:57:59.185Z,99521.22
2019-04-25T21:00:43.016Z,99521.36
2019-04-25T21:03:10.854Z,99523.20
2019-04-25T21:05:39.094Z,99517.65
2019-04-25T21:08:06.887Z,99518.09
2019-04-25T21:10:34.659Z,99518.57
2019-04-25T21:13:04.807Z,99518.33
2019-04-25T21:15:56.219Z,99515.05
2019-04-25T21:18:30.620Z,99514.28
2019-04-25T21:20:59.212Z,99526.34
2019-04-25T21:23:27.109Z,99525.91
2019-04-25T21:25:54.922Z,99523.78
2019-04-25T21:28:22.706Z,99518.67
2019-04-25T21:30:51.358Z,99513.50
2019-04-25T21:33:19.183Z,99512.78
2019-04-25T21:35:47.195Z,99519.02
2019-04-25T21:38:15.471Z,99516.85
2019-04-25T21:41:05.687Z,99517.09
2019-04-25T21:43:37.808Z,99522.60
2019-04-25T21:46:05.880Z,99513.45
2019-04-25T21:48:33.914Z,99511.95
2019-04-25T21:51:21.614Z,99509.70
2019-04-25T21:53:49.364Z,99504.41
2019-04-25T21:56:17.309Z,99506.72
2019-04-25T21:58:45.050Z,99500.39
2019-04-25T22:01:17.034Z,99507.27
2019-04-25T22:03:44.889Z,99500.98
2019-04-25T22:06:12.982Z,99497.88
2019-04-25T22:08:40.729Z,99495.05
2019-04-25T22:11:08.514Z,99489.57
2019-04-25T22:13:36.576Z,99493.76
2019-04-25T22:16:04.615Z,99490.58
2019-04-25T22:18:32.978Z,99484.21
2019-04-25T22:21:02.358Z,99488.23
2019-04-25T22:23:30.283Z,99484.23
2019-04-25T22:25:58.853Z,99485.19
2019-04-25T22:28:27.002Z,99477.77
2019-04-25T22:30:57.824Z,99478.49
2019-04-25T22:33:37.707Z,99477.13
2019-04-25T22:36:11.991Z,99476.00
2019-04-25T22:38:39.751Z,99474.39
2019-04-25T22:41:07.519Z,99474.80
2019-04-25T22:43:37.449Z,99474.72
2019-04-25T22:46:05.980Z,99474.61
2019-04-25T22:48:48.918Z,99471.80
2019-04-25T22:51:16.749Z,99464.59
2019-04-25T22:53:45.215Z,99463.36
2019-04-25T22:56:12.926Z,99455.97
2019-04-25T22:58:40.796Z,99459.13
2019-04-25T23:01:18.937Z,99450.50
2019-04-25T23:03:48.701Z,99445.50
2019-04-25T23:06:16.663Z,99441.19
2019-04-25T23:08:44.471Z,99443.84
2019-04-25T23:11:12.502Z,99442.16
2019-04-25T23:13:40.563Z,99432.03
2019-04-25T23:16:08.994Z,99434.72
2019-04-25T23:18:36.789Z,99434.05
2019-04-25T23:21:05.700Z,99424.76
2019-04-25T23:23:34.213Z,99436.09
2019-04-25T23:26:12.562Z,99430.16
2019-04-25T23:28:41.322Z,99426.67
2019-04-25T23:31:16.076Z,99423.41
2019-04-25T23:33:44.153Z,99421.38
2019-04-25T23:36:13.164Z,99424.43
2019-04-25T23:38:41.063Z,99424.91
2019-04-25T23:41:09.381Z,99425.25
2019-04-25T23:43:37.200Z,99420.33
2019-04-25T23:46:05.698Z,99421.17
2019-04-25T23:48:33.800Z,99422.06
2019-04-25T23:51:01.659Z,99416.98
2019-04-25T23:53:29.449Z,99420.49
2019-04-25T23:55:57.211Z,99418.38
2019-04-25T23:58:24.930Z,99415.16
